Terminal Aerodrome Forecast
Issued by NWS Milwaukee/Sullivan, WI

Home | Current Version | Previous Version | Text Only | Print | Product List | Glossary On
Versions: 1 2 3 4 5 6 7 8 9 10 11 12 13 14 15 16 17 18 19 20 21 22 23 24 25 26 27 28 29 30 31 32 33
000
FTUS43 KMKX 281732
TAFMKE
TAF
KMKE 281732Z 2818/2924 02012KT P6SM OVC004
     FM282000 03009KT P6SM SCT008 BKN015
     FM290400 02008KT 4SM BR FEW035
     FM290600 03008KT 2SM BR FEW030
     FM291100 05007KT 3SM BR BKN015
     FM291500 06008KT 4SM BR BKN025
     FM291700 05008KT 3SM BR BKN015
     FM291800 05008KT P6SM BKN010
     FM292000 04009KT P6SM BKN045=

USA.gov is the U.S. government's official web portal to all federal, state and local government web resources and services.